Lorraine, Kansas
Current Conditions -  °F | °C
As of 12:15 PM on Tuesday 21 Oct 2014 (Local Time) from KGBD Reporting Station
Scattered Clouds Scattered Clouds  
Wind Chill: 72°   Ceiling: Unl
Heat Index: 72°   Visibility: 10mi
Dew Point: 61°   Wind: 15mph
Humidity: 69%   Direction: 140°SE
Pressure: 30.07"   Gusts: 18mph
Location:  38.57°N, 98.32°W
Report Text: KGBD 211715Z AUTO 14013G16KT 10SM SCT060 22/16 A3007 RMK AO1
Loading
Personal Weather Stations






























Interactive Weather Map
Tropical Storm Tracking
New forecast layout! Learn more

10-Day Weather Forecast

Advertisements
Track Severe Weather on mobile